This is the latest recevied weather packets stored in our database for station/object KC1HBM. If no packets are shown the sender has not sent any weather packets the latest 1 day(s).
| Time | Temp. | Humidity | Pressure | Rain* | Wind** | Luminosity | Snow |
|---|---|---|---|---|---|---|---|
| 1777995038 | 18.33° C | 69% | 1006 hPa | 0 mm | 0.89 m/s, 310° | 665 W/m² | - |
| 1777994735 | 18.33° C | 70% | 1006.1 hPa | 0 mm | 0.89 m/s, 315° | 662 W/m² | - |
| 1777994430 | 18.89° C | 68% | 1006.3 hPa | 0 mm | 0.89 m/s, 290° | 623 W/m² | - |
| 1777994125 | 18.33° C | 69% | 1006 hPa | 0 mm | 0.89 m/s, 308° | 649 W/m² | - |
| 1777993823 | 17.78° C | 69% | 1006.2 hPa | 0 mm | 0.89 m/s, 302° | 650 W/m² | - |
| 1777993519 | 17.22° C | 72% | 1006.1 hPa | 0 mm | 0.89 m/s, 331° | 655 W/m² | - |
| 1777993215 | 16.67° C | 73% | 1006.4 hPa | 0 mm | 0.89 m/s, 290° | 633 W/m² | - |
| 1777992912 | 15.56° C | 75% | 1006.4 hPa | 0 mm | 0 m/s | 633 W/m² | - |
| 1777992610 | 14.44° C | 79% | 1006.4 hPa | 0 mm | 1.34 m/s, 24° | 305 W/m² | - |
| 1777992308 | 13.89° C | 80% | 1006.6 hPa | 0 mm | 0.45 m/s, 315° | 167 W/m² | - |
| 1777992005 | 13.33° C | 81% | 1006.6 hPa | 0 mm | 1.34 m/s, 6° | 172 W/m² | - |
| 1777991702 | 12.78° C | 82% | 1006.5 hPa | 0 mm | 1.34 m/s, 270° | 147 W/m² | - |
| 1777991399 | 13.33° C | 81% | 1006.3 hPa | 0 mm | 1.79 m/s, 330° | 101 W/m² | - |
| 1777991096 | 13.89° C | 80% | 1006.1 hPa | 0 mm | 0.89 m/s, 303° | 95 W/m² | - |
| 1777990793 | 15° C | 78% | 1005.8 hPa | 0 mm | 0 m/s | 69 W/m² | - |
| 1777990491 | 15° C | 77% | 1005.8 hPa | 0 mm | 0.45 m/s, 298° | 118 W/m² | - |
| 1777990188 | 15.56° C | 75% | 1005.7 hPa | 0 mm | 1.34 m/s, 328° | 145 W/m² | - |
| 1777989884 | 16.67° C | 72% | 1006.1 hPa | 0 mm | 1.34 m/s, 316° | 672 W/m² | - |
| 1777989581 | 16.67° C | 71% | 1006.3 hPa | 0 mm | 0.45 m/s, 311° | 521 W/m² | - |
| 1777989278 | 17.22° C | 70% | 1006.1 hPa | 0 mm | 1.34 m/s, 281° | 498 W/m² | - |
| 1777988974 | 16.67° C | 71% | 1006 hPa | 0 mm | 0.89 m/s, 346° | 482 W/m² | - |
| 1777988671 | 16.67° C | 70% | 1006.4 hPa | 0 mm | 2.24 m/s, 60° | 459 W/m² | - |
| 1777988367 | 16.11° C | 73% | 1006.1 hPa | 0 mm | 0.89 m/s, 294° | 448 W/m² | - |
| 1777988065 | 16.11° C | 73% | 1006.2 hPa | 0 mm | 0.89 m/s, 308° | 460 W/m² | - |
| 1777987760 | 16.11° C | 74% | 1006.2 hPa | 0 mm | 0.89 m/s, 305° | 452 W/m² | - |
* Rain latest hour (hover to see other rain measurements)
** Current wind speed in m/s (hover to see current wind gust speed)